Time;durP1;ratioP1;P1;durP2;ratioP2;P2;SDS_P1;SDS_P2;PMS_P1;PMS_P2;Temp;Humidity;BMP_temperature;BMP_pressure;BME280_temperature;BME280_humidity;BME280_pressure;Samples;Min_cycle;Max_cycle;Signal;HPM_P1;HPM_P2
2021/10/19 04:51:08;;;;;;;107.97;64.00;;;;;;;;;;5826223;23;20162;-82
2021/10/19 04:53:36;;;;;;;110.13;64.22;;;;;;;;;;4930714;29;20044;-82
2021/10/19 04:56:03;;;;;;;101.85;63.40;;;;;;;;;;4931143;29;20047;-82
2021/10/19 04:58:30;;;;;;;103.28;63.15;;;;;;;;;;4933247;29;20497;-82
2021/10/19 05:00:58;;;;;;;113.28;63.42;;;;;;;;;;4930678;29;20111;-82
2021/10/19 05:03:25;;;;;;;102.40;61.85;;;;;;;;;;4931536;29;20481;-82
2021/10/19 05:05:53;;;;;;;106.53;62.13;;;;;;;;;;4933423;29;20654;-82
2021/10/19 05:08:21;;;;;;;103.93;62.17;;;;;;;;;;4949725;29;20047;-82
2021/10/19 05:10:49;;;;;;;106.32;61.53;;;;;;;;;;4945234;29;20038;-81
2021/10/19 05:13:16;;;;;;;109.68;61.30;;;;;;;;;;4937685;29;20119;-82
2021/10/19 05:15:45;;;;;;;109.93;64.35;;;;;;;;;;4929632;29;20050;-81
2021/10/19 05:18:12;;;;;;;103.63;60.05;;;;;;;;;;4914628;29;20044;-82
2021/10/19 05:20:41;;;;;;;104.35;58.53;;;;;;;;;;4929571;29;20044;-82
2021/10/19 05:23:08;;;;;;;112.47;64.65;;;;;;;;;;4930113;29;20058;-82
2021/10/19 05:25:37;;;;;;;102.75;61.42;;;;;;;;;;4930081;29;20046;-82
2021/10/19 05:28:04;;;;;;;103.90;62.25;;;;;;;;;;4931382;29;20601;-82
2021/10/19 05:30:32;;;;;;;97.53;58.20;;;;;;;;;;4929521;29;20502;-82
2021/10/19 05:32:59;;;;;;;106.53;61.80;;;;;;;;;;4931562;29;20044;-81
2021/10/19 05:35:26;;;;;;;102.72;61.28;;;;;;;;;;4933050;29;20108;-81
2021/10/19 05:37:54;;;;;;;101.43;62.08;;;;;;;;;;4945589;29;20033;-81
2021/10/19 05:40:21;;;;;;;99.90;59.92;;;;;;;;;;4953119;29;20048;-82
2021/10/19 05:42:50;;;;;;;111.88;63.67;;;;;;;;;;4933309;29;20127;-82
2021/10/19 05:45:18;;;;;;;104.90;63.85;;;;;;;;;;4928537;29;20039;-82
2021/10/19 05:47:45;;;;;;;105.53;63.15;;;;;;;;;;4931308;29;20051;-82
2021/10/19 05:50:14;;;;;;;110.35;64.25;;;;;;;;;;4932084;29;20040;-82
2021/10/19 05:52:42;;;;;;;114.68;65.68;;;;;;;;;;4932220;28;20138;-82
2021/10/19 05:55:09;;;;;;;111.05;65.43;;;;;;;;;;4930125;29;20482;-82
2021/10/19 05:57:38;;;;;;;112.75;66.05;;;;;;;;;;4932347;29;20086;-82
2021/10/19 06:00:08;;;;;;;115.20;64.75;;;;;;;;;;4919496;29;20036;-82
2021/10/19 06:02:41;;;;;;;115.53;62.47;;;;;;;;;;4925863;28;20060;-82
2021/10/19 06:05:09;;;;;;;114.78;64.70;;;;;;;;;;4928088;29;20127;-83
2021/10/19 06:07:36;;;;;;;104.80;61.28;;;;;;;;;;4921734;29;20040;-82
2021/10/19 06:10:04;;;;;;;109.38;62.17;;;;;;;;;;4932829;29;20058;-83
2021/10/19 06:12:31;;;;;;;109.85;63.28;;;;;;;;;;4933360;29;20075;-82
2021/10/19 06:14:59;;;;;;;103.30;59.20;;;;;;;;;;4932443;29;20043;-82
2021/10/19 06:17:27;;;;;;;102.88;60.17;;;;;;;;;;4933593;29;20040;-82
2021/10/19 06:19:55;;;;;;;99.53;61.88;;;;;;;;;;4935489;29;20218;-82
2021/10/19 06:22:22;;;;;;;99.00;58.47;;;;;;;;;;4931943;29;20533;-83
2021/10/19 06:24:49;;;;;;;101.13;58.45;;;;;;;;;;4934345;29;20138;-82
2021/10/19 06:27:16;;;;;;;92.68;55.13;;;;;;;;;;4933719;29;20046;-83
2021/10/19 06:29:44;;;;;;;92.13;53.45;;;;;;;;;;4919465;29;20047;-82
2021/10/19 06:32:11;;;;;;;84.53;48.78;;;;;;;;;;4931156;29;20039;-82
2021/10/19 06:34:40;;;;;;;80.95;49.35;;;;;;;;;;4933030;29;20046;-83
2021/10/19 06:37:07;;;;;;;79.93;51.33;;;;;;;;;;4933381;29;20099;-82
2021/10/19 06:39:34;;;;;;;74.90;46.80;;;;;;;;;;4948147;28;20046;-82
2021/10/19 06:42:02;;;;;;;74.40;45.78;;;;;;;;;;4932471;29;20560;-82
2021/10/19 06:44:29;;;;;;;76.97;47.20;;;;;;;;;;4926153;29;20131;-83
2021/10/19 06:46:56;;;;;;;64.88;44.50;;;;;;;;;;4932020;29;20123;-82
2021/10/19 06:49:24;;;;;;;68.95;43.42;;;;;;;;;;4933215;29;20048;-82
2021/10/19 06:51:52;;;;;;;69.22;45.05;;;;;;;;;;4940355;28;20044;-82
2021/10/19 06:54:20;;;;;;;68.90;42.22;;;;;;;;;;4933070;29;20119;-82
2021/10/19 06:56:47;;;;;;;66.72;42.05;;;;;;;;;;4931545;29;20048;-82
2021/10/19 06:59:14;;;;;;;65.22;41.42;;;;;;;;;;4933070;29;20050;-81
2021/10/19 07:01:41;;;;;;;60.78;40.40;;;;;;;;;;4932967;29;20036;-81
2021/10/19 07:04:09;;;;;;;60.92;41.97;;;;;;;;;;4928058;29;20035;-81
2021/10/19 07:06:36;;;;;;;59.72;39.58;;;;;;;;;;4936524;29;20036;-80
2021/10/19 07:09:05;;;;;;;56.45;37.60;;;;;;;;;;4938977;29;20048;-81
2021/10/19 07:11:33;;;;;;;57.95;38.28;;;;;;;;;;4940306;29;20078;-82
2021/10/19 07:14:00;;;;;;;58.90;38.00;;;;;;;;;;4940814;29;20055;-81
2021/10/19 07:16:27;;;;;;;53.25;35.70;;;;;;;;;;4958034;29;20091;-81
2021/10/19 07:18:54;;;;;;;58.97;37.80;;;;;;;;;;4954900;29;20059;-81
2021/10/19 07:21:23;;;;;;;54.30;37.72;;;;;;;;;;4937424;29;20055;-81
2021/10/19 07:23:50;;;;;;;55.25;35.85;;;;;;;;;;4939609;29;20050;-82
2021/10/19 07:26:19;;;;;;;54.15;35.58;;;;;;;;;;4931637;29;20035;-82
2021/10/19 07:28:46;;;;;;;46.92;33.30;;;;;;;;;;4931404;29;20063;-81
2021/10/19 07:31:14;;;;;;;42.47;29.95;;;;;;;;;;4919038;29;20119;-81
2021/10/19 07:33:41;;;;;;;42.00;27.67;;;;;;;;;;4932062;29;20050;-81
2021/10/19 07:36:12;;;;;;;37.55;25.90;;;;;;;;;;4931075;29;20083;-81
2021/10/19 07:38:40;;;;;;;37.47;25.45;;;;;;;;;;4932555;29;20051;-82
2021/10/19 07:41:07;;;;;;;34.88;23.77;;;;;;;;;;4932486;29;20048;-81
2021/10/19 07:43:36;;;;;;;29.75;21.77;;;;;;;;;;4922297;29;20076;-82
2021/10/19 07:46:03;;;;;;;26.45;20.10;;;;;;;;;;4930569;29;20051;-82
2021/10/19 07:48:30;;;;;;;24.75;18.35;;;;;;;;;;4930148;29;20087;-82
2021/10/19 07:50:57;;;;;;;25.52;20.70;;;;;;;;;;4931789;29;20046;-81
2021/10/19 07:53:25;;;;;;;24.50;19.00;;;;;;;;;;4932828;29;20032;-81
2021/10/19 07:55:54;;;;;;;25.92;18.92;;;;;;;;;;4931954;29;20051;-82
2021/10/19 07:58:21;;;;;;;24.92;17.73;;;;;;;;;;4930270;29;20535;-82
2021/10/19 08:00:50;;;;;;;21.27;17.10;;;;;;;;;;4929009;29;20047;-82
2021/10/19 08:03:17;;;;;;;19.73;15.88;;;;;;;;;;4928490;29;20042;-81
2021/10/19 08:05:46;;;;;;;21.80;16.42;;;;;;;;;;4932303;29;20103;-82
2021/10/19 08:08:14;;;;;;;17.95;15.57;;;;;;;;;;4931538;29;20043;-82
2021/10/19 08:10:42;;;;;;;18.70;15.52;;;;;;;;;;4930370;29;20043;-81
2021/10/19 08:13:10;;;;;;;16.67;12.75;;;;;;;;;;4932884;29;20056;-81
2021/10/19 08:15:38;;;;;;;17.60;14.50;;;;;;;;;;4931929;29;20078;-82
2021/10/19 08:18:07;;;;;;;16.65;13.98;;;;;;;;;;4931351;29;20107;-81
2021/10/19 08:20:35;;;;;;;16.45;13.77;;;;;;;;;;4931391;29;20040;-82
2021/10/19 08:23:02;;;;;;;13.70;11.60;;;;;;;;;;4933744;29;20398;-81
2021/10/19 08:25:30;;;;;;;12.27;11.02;;;;;;;;;;4920297;29;20052;-81
2021/10/19 08:27:57;;;;;;;15.52;11.68;;;;;;;;;;4931337;29;20040;-81
2021/10/19 08:30:25;;;;;;;13.57;12.00;;;;;;;;;;4934078;29;20071;-81
2021/10/19 08:32:52;;;;;;;10.63;9.52;;;;;;;;;;4931052;29;20044;-81
2021/10/19 08:35:23;;;;;;;9.60;8.18;;;;;;;;;;4917895;29;20387;-81
2021/10/19 08:37:51;;;;;;;9.60;8.60;;;;;;;;;;4935606;29;20055;-82
2021/10/19 08:40:19;;;;;;;10.57;8.35;;;;;;;;;;4935598;29;20048;-82
2021/10/19 08:42:47;;;;;;;8.43;7.38;;;;;;;;;;4930967;29;20498;-81
2021/10/19 08:45:16;;;;;;;7.97;7.03;;;;;;;;;;4931967;29;20048;-82
2021/10/19 08:47:43;;;;;;;5.45;4.82;;;;;;;;;;4929096;29;20047;-82
2021/10/19 08:50:12;;;;;;;4.68;4.00;;;;;;;;;;4930025;29;20175;-81
2021/10/19 08:52:40;;;;;;;4.38;3.63;;;;;;;;;;4943668;28;20051;-82
2021/10/19 08:55:08;;;;;;;4.88;3.13;;;;;;;;;;4932238;29;20497;-81
2021/10/19 08:57:36;;;;;;;3.20;3.00;;;;;;;;;;4931673;29;20078;-82
2021/10/19 09:00:04;;;;;;;3.80;3.50;;;;;;;;;;4924567;29;20048;-81
2021/10/19 09:02:36;;;;;;;3.05;2.83;;;;;;;;;;4932094;29;20482;-81
2021/10/19 09:05:04;;;;;;;3.83;3.45;;;;;;;;;;4937752;29;20058;-81
2021/10/19 09:07:31;;;;;;;3.10;2.63;;;;;;;;;;4938548;29;20418;-81
2021/10/19 09:10:00;;;;;;;4.10;3.55;;;;;;;;;;4933304;29;20524;-81
2021/10/19 09:12:27;;;;;;;2.65;2.25;;;;;;;;;;4926468;29;20072;-81
2021/10/19 09:15:04;;;;;;;3.28;2.97;;;;;;;;;;4917130;29;20512;-81
2021/10/19 09:17:37;;;;;;;3.83;3.05;;;;;;;;;;4931694;29;20275;-81
2021/10/19 09:20:11;;;;;;;2.25;1.67;;;;;;;;;;4929801;29;20059;-81
2021/10/19 09:22:38;;;;;;;3.60;2.60;;;;;;;;;;4930419;29;20063;-81
2021/10/19 09:25:08;;;;;;;3.05;1.55;;;;;;;;;;4931167;29;20320;-81
2021/10/19 09:27:36;;;;;;;2.22;2.05;;;;;;;;;;4939005;29;20036;-80
2021/10/19 09:30:08;;;;;;;1.77;1.63;;;;;;;;;;4953628;29;20031;-81
2021/10/19 09:32:35;;;;;;;2.08;1.42;;;;;;;;;;4949417;29;20111;-81
2021/10/19 09:35:03;;;;;;;2.30;1.02;;;;;;;;;;4929325;29;20156;-81
2021/10/19 09:37:30;;;;;;;1.95;1.30;;;;;;;;;;4931752;29;20051;-81
2021/10/19 09:39:59;;;;;;;1.52;1.42;;;;;;;;;;4920774;29;20044;-81
2021/10/19 09:42:30;;;;;;;1.05;0.93;;;;;;;;;;4920602;29;20044;-82
2021/10/19 09:44:58;;;;;;;3.53;1.30;;;;;;;;;;4927209;29;20075;-81
2021/10/19 09:47:26;;;;;;;1.33;1.30;;;;;;;;;;4935183;29;20040;-81
2021/10/19 09:49:54;;;;;;;1.50;1.40;;;;;;;;;;4934616;29;20363;-82
2021/10/19 09:52:21;;;;;;;2.40;1.50;;;;;;;;;;4931684;29;20058;-82
2021/10/19 09:54:52;;;;;;;1.60;1.50;;;;;;;;;;4933887;29;20131;-81
2021/10/19 09:57:20;;;;;;;1.75;1.33;;;;;;;;;;4933785;29;20119;-81
2021/10/19 09:59:48;;;;;;;1.95;1.85;;;;;;;;;;4928630;29;20040;-81
2021/10/19 10:02:16;;;;;;;2.20;2.00;;;;;;;;;;4945768;28;20047;-81
2021/10/19 10:04:44;;;;;;;2.88;2.58;;;;;;;;;;4929380;28;20406;-82
2021/10/19 10:07:13;;;;;;;2.60;2.40;;;;;;;;;;4925212;29;20042;-82
2021/10/19 10:09:40;;;;;;;3.08;2.70;;;;;;;;;;4934779;29;20036;-82
2021/10/19 10:12:08;;;;;;;3.97;3.58;;;;;;;;;;4934950;29;20036;-82
2021/10/19 10:14:41;;;;;;;3.53;3.20;;;;;;;;;;4949973;29;20055;-81
2021/10/19 10:17:11;;;;;;;6.75;4.03;;;;;;;;;;4960311;29;20051;-82
2021/10/19 10:19:38;;;;;;;4.45;4.05;;;;;;;;;;4949772;29;20051;-82
2021/10/19 10:22:15;;;;;;;5.22;4.18;;;;;;;;;;4945571;29;20057;-82
2021/10/19 10:24:43;;;;;;;5.45;4.95;;;;;;;;;;4932059;29;20071;-82
2021/10/19 10:27:12;;;;;;;5.65;5.10;;;;;;;;;;4933582;29;20050;-82
2021/10/19 10:29:44;;;;;;;7.30;6.60;;;;;;;;;;4932679;29;20066;-82
2021/10/19 10:32:23;;;;;;;6.28;5.75;;;;;;;;;;4918602;29;20401;-82
2021/10/19 10:35:00;;;;;;;6.45;5.85;;;;;;;;;;4934404;29;20466;-82
2021/10/19 10:37:36;;;;;;;10.55;6.57;;;;;;;;;;4933063;29;20130;-82
2021/10/19 10:40:03;;;;;;;8.02;7.30;;;;;;;;;;4936853;29;20441;-82
2021/10/19 10:42:35;;;;;;;8.15;7.35;;;;;;;;;;4932340;29;20044;-81
2021/10/19 10:45:02;;;;;;;9.52;7.88;;;;;;;;;;4934767;29;20079;-82
2021/10/19 10:47:31;;;;;;;10.15;8.90;;;;;;;;;;4934416;28;20132;-82
2021/10/19 10:49:59;;;;;;;9.80;8.52;;;;;;;;;;4932864;29;20051;-82
2021/10/19 10:52:26;;;;;;;9.95;8.95;;;;;;;;;;4932420;29;20132;-82
2021/10/19 10:54:55;;;;;;;10.50;9.48;;;;;;;;;;4931876;29;20039;-81
2021/10/19 10:57:22;;;;;;;10.32;9.32;;;;;;;;;;4929000;29;20449;-82
2021/10/19 10:59:53;;;;;;;11.02;9.93;;;;;;;;;;4931031;29;20031;-82
2021/10/19 11:02:20;;;;;;;12.00;10.70;;;;;;;;;;4948644;29;20040;-82
2021/10/19 11:04:50;;;;;;;10.45;9.52;;;;;;;;;;4927961;29;20044;-82
2021/10/19 11:07:25;;;;;;;11.38;10.05;;;;;;;;;;4949306;29;20565;-81
2021/10/19 11:09:53;;;;;;;11.18;10.07;;;;;;;;;;4931622;29;20060;-82
2021/10/19 11:12:20;;;;;;;11.43;10.32;;;;;;;;;;4932951;29;20032;-82
2021/10/19 11:14:48;;;;;;;12.35;11.15;;;;;;;;;;4933642;29;20050;-82
2021/10/19 11:17:18;;;;;;;13.60;11.88;;;;;;;;;;4933638;29;20478;-81
2021/10/19 11:19:46;;;;;;;12.82;11.52;;;;;;;;;;4932082;29;20062;-82
2021/10/19 11:22:14;;;;;;;13.00;11.73;;;;;;;;;;4929534;29;20100;-82
2021/10/19 11:24:43;;;;;;;13.50;12.10;;;;;;;;;;4929974;29;20557;-82
2021/10/19 11:27:11;;;;;;;14.32;12.82;;;;;;;;;;4933848;29;20063;-82
2021/10/19 11:29:39;;;;;;;15.23;12.10;;;;;;;;;;4919248;29;20039;-82
2021/10/19 11:32:07;;;;;;;16.00;14.00;;;;;;;;;;4928457;29;20130;-82
2021/10/19 11:34:34;;;;;;;18.83;16.08;;;;;;;;;;4930901;29;20078;-82
2021/10/19 11:37:01;;;;;;;19.55;15.70;;;;;;;;;;4932440;29;20476;-82
2021/10/19 11:39:30;;;;;;;19.80;16.73;;;;;;;;;;4918372;28;20050;-82
2021/10/19 11:42:00;;;;;;;22.60;18.65;;;;;;;;;;4929412;29;20052;-83
2021/10/19 11:44:30;;;;;;;24.77;18.63;;;;;;;;;;4929689;29;20064;-82
2021/10/19 11:46:59;;;;;;;26.55;19.58;;;;;;;;;;4932122;29;20490;-82
2021/10/19 11:49:26;;;;;;;26.30;20.65;;;;;;;;;;4932200;29;20044;-82
2021/10/19 11:51:55;;;;;;;24.88;19.00;;;;;;;;;;4930927;29;20055;-83
2021/10/19 11:54:22;;;;;;;26.05;21.40;;;;;;;;;;4933927;29;20051;-82
2021/10/19 11:56:58;;;;;;;26.73;21.05;;;;;;;;;;4928144;29;20201;-83
2021/10/19 11:59:26;;;;;;;26.15;20.95;;;;;;;;;;4916574;29;20127;-82
2021/10/19 12:01:54;;;;;;;25.70;20.70;;;;;;;;;;4929903;29;20039;-82
2021/10/19 12:04:25;;;;;;;26.33;20.98;;;;;;;;;;4930213;29;20126;-83
2021/10/19 12:06:52;;;;;;;25.90;21.33;;;;;;;;;;4919490;29;20051;-82
2021/10/19 12:09:21;;;;;;;26.35;21.38;;;;;;;;;;4925117;29;23903;-82
2021/10/19 12:11:49;;;;;;;23.48;20.30;;;;;;;;;;4933059;29;20044;-82
2021/10/19 12:14:19;;;;;;;22.85;19.10;;;;;;;;;;4930492;29;20482;-82
2021/10/19 12:16:53;;;;;;;22.63;19.38;;;;;;;;;;4931035;29;20127;-82
2021/10/19 12:19:21;;;;;;;24.73;18.10;;;;;;;;;;4931710;29;20067;-81
2021/10/19 12:21:50;;;;;;;22.80;19.48;;;;;;;;;;4932341;29;20055;-82
2021/10/19 12:24:18;;;;;;;22.42;18.80;;;;;;;;;;4931298;29;20493;-82
2021/10/19 12:26:45;;;;;;;22.00;19.40;;;;;;;;;;4930266;29;20143;-82
2021/10/19 12:29:13;;;;;;;21.27;18.02;;;;;;;;;;4931469;29;20046;-82
2021/10/19 12:31:48;;;;;;;23.90;20.02;;;;;;;;;;4931542;29;20059;-83
2021/10/19 12:34:15;;;;;;;21.15;18.23;;;;;;;;;;4931592;29;20253;-83
2021/10/19 12:36:43;;;;;;;18.92;16.90;;;;;;;;;;4930846;29;20051;-83
2021/10/19 12:39:14;;;;;;;17.33;15.27;;;;;;;;;;4937336;29;20044;-82
2021/10/19 12:41:42;;;;;;;15.70;14.23;;;;;;;;;;4932045;29;20518;-82
2021/10/19 12:44:11;;;;;;;17.75;14.20;;;;;;;;;;4917347;29;20054;-82
2021/10/19 12:46:39;;;;;;;16.00;14.07;;;;;;;;;;4923767;29;20052;-81
2021/10/19 12:49:08;;;;;;;14.85;13.13;;;;;;;;;;4923613;29;20099;-81
2021/10/19 12:51:36;;;;;;;17.50;13.43;;;;;;;;;;4932654;29;20050;-80
2021/10/19 12:54:04;;;;;;;14.70;13.10;;;;;;;;;;4934423;29;20044;-81
2021/10/19 12:56:33;;;;;;;19.35;17.33;;;;;;;;;;4929235;29;20053;-81
2021/10/19 12:59:01;;;;;;;15.35;13.77;;;;;;;;;;4930900;29;20036;-82
2021/10/19 13:01:28;;;;;;;17.38;15.40;;;;;;;;;;4931929;29;20138;-82
2021/10/19 13:03:56;;;;;;;17.30;15.60;;;;;;;;;;4938669;29;20122;-82
2021/10/19 13:06:25;;;;;;;17.77;15.85;;;;;;;;;;4935412;29;20111;-81
2021/10/19 13:08:54;;;;;;;20.52;17.10;;;;;;;;;;4930828;29;20039;-82
2021/10/19 13:11:21;;;;;;;20.00;17.83;;;;;;;;;;4930904;29;20517;-82
2021/10/19 13:13:49;;;;;;;19.90;17.63;;;;;;;;;;4945736;29;20087;-82
2021/10/19 13:16:16;;;;;;;23.73;19.45;;;;;;;;;;4955644;28;20039;-81
2021/10/19 13:18:44;;;;;;;25.08;19.88;;;;;;;;;;4950707;29;20036;-81
2021/10/19 13:21:12;;;;;;;30.38;24.02;;;;;;;;;;4954792;29;20048;-81
2021/10/19 13:23:41;;;;;;;31.63;24.75;;;;;;;;;;4941014;29;20042;-81
2021/10/19 13:26:09;;;;;;;37.28;27.63;;;;;;;;;;4939742;29;20075;-82
2021/10/19 13:28:37;;;;;;;38.38;27.70;;;;;;;;;;4930253;29;20056;-81
2021/10/19 13:31:04;;;;;;;46.95;30.88;;;;;;;;;;4927842;29;20047;-81
2021/10/19 13:33:32;;;;;;;45.10;31.80;;;;;;;;;;4917626;29;20146;-82
2021/10/19 13:36:01;;;;;;;48.78;33.92;;;;;;;;;;4917756;29;20103;-81
2021/10/19 13:38:29;;;;;;;52.25;34.92;;;;;;;;;;4930590;29;20039;-81
2021/10/19 13:40:58;;;;;;;58.25;37.47;;;;;;;;;;4931401;29;20501;-80
2021/10/19 13:43:26;;;;;;;51.55;37.38;;;;;;;;;;4930796;29;20067;-81
2021/10/19 13:45:53;;;;;;;52.20;35.83;;;;;;;;;;4931765;29;20043;-82
2021/10/19 13:48:21;;;;;;;56.15;38.53;;;;;;;;;;4929333;29;20159;-81
2021/10/19 13:50:48;;;;;;;55.92;38.45;;;;;;;;;;4931629;29;20493;-81
2021/10/19 13:53:15;;;;;;;59.88;40.38;;;;;;;;;;4930769;29;20072;-82
2021/10/19 13:55:43;;;;;;;56.08;38.28;;;;;;;;;;4931742;29;20039;-82
2021/10/19 13:58:12;;;;;;;55.78;38.97;;;;;;;;;;4928860;29;20047;-81
2021/10/19 14:00:40;;;;;;;59.13;41.30;;;;;;;;;;4923607;29;20054;-82
2021/10/19 14:03:07;;;;;;;60.15;41.83;;;;;;;;;;4919798;29;20466;-83
2021/10/19 14:05:37;;;;;;;60.83;41.83;;;;;;;;;;4915263;29;20047;-82
2021/10/19 14:08:09;;;;;;;60.65;42.67;;;;;;;;;;4918757;29;20517;-82
2021/10/19 14:10:37;;;;;;;64.20;44.17;;;;;;;;;;4929877;29;20048;-82
2021/10/19 14:13:04;;;;;;;62.78;43.28;;;;;;;;;;4929842;29;20107;-83
2021/10/19 14:15:33;;;;;;;62.45;45.25;;;;;;;;;;4929984;29;20058;-82
2021/10/19 14:18:01;;;;;;;57.55;42.72;;;;;;;;;;4931678;29;20040;-82
2021/10/19 14:20:29;;;;;;;58.80;42.22;;;;;;;;;;4923374;29;20055;-82
2021/10/19 14:22:57;;;;;;;61.92;42.42;;;;;;;;;;4925060;29;20083;-82
2021/10/19 14:25:24;;;;;;;59.95;42.00;;;;;;;;;;4930682;29;20051;-82
2021/10/19 14:27:51;;;;;;;58.17;41.45;;;;;;;;;;4920558;29;20051;-82
2021/10/19 14:30:19;;;;;;;56.25;43.00;;;;;;;;;;4929354;29;20043;-82
2021/10/19 14:32:49;;;;;;;60.75;45.42;;;;;;;;;;4933977;29;20047;-82
2021/10/19 14:35:16;;;;;;;63.83;46.33;;;;;;;;;;4932326;29;20528;-82
2021/10/19 14:37:43;;;;;;;61.67;45.70;;;;;;;;;;4937944;29;20039;-83
2021/10/19 14:40:11;;;;;;;65.50;44.70;;;;;;;;;;4932493;29;20046;-82
2021/10/19 14:42:39;;;;;;;67.60;46.33;;;;;;;;;;4928881;29;20048;-83
2021/10/19 14:45:07;;;;;;;65.55;45.88;;;;;;;;;;4930798;29;20508;-83
2021/10/19 14:47:34;;;;;;;64.68;46.25;;;;;;;;;;4934586;29;20055;-83
2021/10/19 14:50:03;;;;;;;58.67;43.53;;;;;;;;;;4931771;29;20046;-82
2021/10/19 14:52:30;;;;;;;63.08;45.47;;;;;;;;;;4925762;29;20048;-83
2021/10/19 14:54:57;;;;;;;64.88;46.35;;;;;;;;;;4924664;29;20472;-82
2021/10/19 14:57:25;;;;;;;62.85;47.15;;;;;;;;;;4941965;29;20044;-83
2021/10/19 14:59:52;;;;;;;67.40;47.47;;;;;;;;;;4947127;29;20040;-83
2021/10/19 15:02:19;;;;;;;65.93;47.45;;;;;;;;;;4947658;28;20068;-83
2021/10/19 15:04:47;;;;;;;65.28;46.22;;;;;;;;;;4946191;29;20059;-83
2021/10/19 15:07:15;;;;;;;66.22;48.08;;;;;;;;;;4934014;29;20086;-82
2021/10/19 15:09:43;;;;;;;64.68;48.70;;;;;;;;;;4933632;29;20069;-83
2021/10/19 15:12:11;;;;;;;63.78;47.45;;;;;;;;;;4932243;29;20075;-83
2021/10/19 15:14:39;;;;;;;62.53;47.30;;;;;;;;;;4931728;29;20036;-83
2021/10/19 15:17:06;;;;;;;66.75;45.42;;;;;;;;;;4930871;28;20140;-83
2021/10/19 15:19:33;;;;;;;69.03;48.47;;;;;;;;;;4940041;29;20040;-83
2021/10/19 15:22:01;;;;;;;62.75;47.88;;;;;;;;;;4932799;29;20051;-84
2021/10/19 15:24:30;;;;;;;61.28;47.38;;;;;;;;;;4932876;29;20047;-84
2021/10/19 15:26:58;;;;;;;66.65;47.40;;;;;;;;;;4933083;29;20051;-82
2021/10/19 15:29:25;;;;;;;70.50;51.53;;;;;;;;;;4919082;29;20462;-83
2021/10/19 15:31:52;;;;;;;77.55;51.63;;;;;;;;;;4931476;29;20433;-82
2021/10/19 15:34:20;;;;;;;75.55;53.17;;;;;;;;;;4930057;29;20048;-83
2021/10/19 15:36:47;;;;;;;78.15;53.70;;;;;;;;;;4921259;29;20050;-82
2021/10/19 15:39:15;;;;;;;77.03;53.58;;;;;;;;;;4938038;29;20047;-83
2021/10/19 15:41:44;;;;;;;77.38;54.08;;;;;;;;;;4935269;29;20102;-83
2021/10/19 15:44:11;;;;;;;75.45;55.67;;;;;;;;;;4932494;29;20148;-83
2021/10/19 15:46:42;;;;;;;75.40;52.92;;;;;;;;;;4936909;29;20063;-83
2021/10/19 15:49:12;;;;;;;72.10;53.63;;;;;;;;;;4927556;28;20124;-83
2021/10/19 15:51:39;;;;;;;69.80;50.95;;;;;;;;;;4947288;28;20122;-83
2021/10/19 15:54:07;;;;;;;71.32;51.63;;;;;;;;;;4934561;28;20482;-83
2021/10/19 15:56:34;;;;;;;72.53;52.88;;;;;;;;;;4930993;29;20151;-82
2021/10/19 15:59:05;;;;;;;69.03;49.90;;;;;;;;;;4932301;29;20040;-83
2021/10/19 16:01:32;;;;;;;71.70;50.25;;;;;;;;;;4932062;29;20067;-83
2021/10/19 16:03:59;;;;;;;73.68;52.90;;;;;;;;;;4929317;29;20080;-83
2021/10/19 16:06:27;;;;;;;73.45;52.40;;;;;;;;;;4931132;29;20040;-82
2021/10/19 16:08:54;;;;;;;83.32;57.25;;;;;;;;;;4931383;29;20036;-82
2021/10/19 16:11:21;;;;;;;80.57;54.00;;;;;;;;;;4932169;29;20067;-82
2021/10/19 16:13:49;;;;;;;81.82;57.15;;;;;;;;;;4933055;29;20043;-82
2021/10/19 16:16:17;;;;;;;79.35;56.42;;;;;;;;;;4943759;28;20043;-82
2021/10/19 16:18:45;;;;;;;80.30;55.33;;;;;;;;;;4952135;28;20043;-81
2021/10/19 16:21:12;;;;;;;83.15;55.17;;;;;;;;;;4938835;29;20064;-83
2021/10/19 16:23:40;;;;;;;87.65;57.85;;;;;;;;;;4934810;29;20044;-83
2021/10/19 16:26:07;;;;;;;87.88;55.92;;;;;;;;;;4931761;29;20044;-83
2021/10/19 16:28:35;;;;;;;90.38;57.97;;;;;;;;;;4921882;29;20055;-82
2021/10/19 16:31:02;;;;;;;80.13;54.25;;;;;;;;;;4933498;29;20075;-82
2021/10/19 16:33:31;;;;;;;80.50;56.05;;;;;;;;;;4919481;29;20040;-83
2021/10/19 16:35:58;;;;;;;77.03;52.53;;;;;;;;;;4928504;29;20131;-83
2021/10/19 16:38:25;;;;;;;74.63;52.00;;;;;;;;;;4930926;29;20071;-82
2021/10/19 16:40:53;;;;;;;78.03;54.97;;;;;;;;;;4917862;29;20048;-82
2021/10/19 16:43:20;;;;;;;78.07;55.03;;;;;;;;;;4931902;29;20039;-83
2021/10/19 16:45:48;;;;;;;85.00;56.35;;;;;;;;;;4933022;29;20438;-84
2021/10/19 16:48:17;;;;;;;79.90;55.00;;;;;;;;;;4922182;29;20095;-82
2021/10/19 16:50:46;;;;;;;84.15;53.97;;;;;;;;;;4934061;29;20536;-84
2021/10/19 16:53:13;;;;;;;78.95;52.92;;;;;;;;;;4930203;29;20046;-84
2021/10/19 16:55:42;;;;;;;80.72;53.63;;;;;;;;;;4936479;29;20044;-84
2021/10/19 16:58:09;;;;;;;70.90;52.35;;;;;;;;;;4950056;29;20043;-82
2021/10/19 17:00:37;;;;;;;80.97;53.17;;;;;;;;;;4947484;29;20059;-85
2021/10/19 17:03:05;;;;;;;79.13;52.45;;;;;;;;;;4945254;29;20505;-85
2021/10/19 17:05:33;;;;;;;83.85;53.83;;;;;;;;;;4940050;29;20051;-86
2021/10/19 17:08:03;;;;;;;75.72;52.65;;;;;;;;;;4938999;29;20039;-86
2021/10/19 17:10:30;;;;;;;75.75;50.78;;;;;;;;;;4938245;29;20028;-87
2021/10/19 17:13:01;;;;;;;70.95;48.58;;;;;;;;;;4946119;29;20039;-84
2021/10/19 17:15:31;;;;;;;69.03;48.45;;;;;;;;;;4942351;29;20043;-85
2021/10/19 17:21:30;;;;;;;75.50;52.10;;;;;;;;;;4892156;28;20064;-85
2021/10/19 17:24:01;;;;;;;77.68;53.75;;;;;;;;;;4930641;29;20521;-85
2021/10/19 17:26:31;;;;;;;89.40;55.53;;;;;;;;;;4935890;29;20506;-86
2021/10/19 17:28:58;;;;;;;84.18;54.92;;;;;;;;;;4933505;29;20055;-84
2021/10/19 17:31:26;;;;;;;90.00;55.47;;;;;;;;;;4923965;29;20130;-86
2021/10/19 17:33:56;;;;;;;85.28;54.58;;;;;;;;;;4925860;29;20039;-85
2021/10/19 17:36:24;;;;;;;88.47;54.17;;;;;;;;;;4934222;29;20039;-84
2021/10/19 17:38:51;;;;;;;76.45;52.85;;;;;;;;;;4930992;29;20055;-86
2021/10/19 17:41:21;;;;;;;71.75;50.45;;;;;;;;;;4929371;29;20044;-83
2021/10/19 17:43:48;;;;;;;81.30;52.88;;;;;;;;;;4922203;29;20536;-85
2021/10/19 17:46:15;;;;;;;73.50;51.75;;;;;;;;;;4930524;29;20546;-84
2021/10/19 17:48:43;;;;;;;75.50;50.28;;;;;;;;;;4926858;29;20035;-83
2021/10/19 17:51:10;;;;;;;74.97;50.83;;;;;;;;;;4930541;29;20040;-84
2021/10/19 17:53:38;;;;;;;73.78;49.20;;;;;;;;;;4929194;29;20043;-83
2021/10/19 17:56:05;;;;;;;73.05;48.78;;;;;;;;;;4931730;29;20163;-84
2021/10/19 17:58:35;;;;;;;69.72;48.53;;;;;;;;;;4927759;29;20418;-84
2021/10/19 18:01:04;;;;;;;67.45;47.45;;;;;;;;;;4926757;29;20040;-84
2021/10/19 18:03:31;;;;;;;71.43;48.35;;;;;;;;;;4930830;29;20131;-84
2021/10/19 18:06:01;;;;;;;67.95;49.15;;;;;;;;;;4926687;29;20131;-83
2021/10/19 18:08:30;;;;;;;69.55;47.65;;;;;;;;;;4933632;29;20115;-83
2021/10/19 18:10:58;;;;;;;65.20;47.40;;;;;;;;;;4932770;29;20161;-84
2021/10/19 18:13:25;;;;;;;68.13;48.45;;;;;;;;;;4931187;29;20510;-84
2021/10/19 18:15:56;;;;;;;69.07;46.67;;;;;;;;;;4928513;29;20057;-84
2021/10/19 18:18:25;;;;;;;70.22;47.92;;;;;;;;;;4926672;29;20054;-84
2021/10/19 18:20:52;;;;;;;66.93;47.13;;;;;;;;;;4942643;28;20040;-83
2021/10/19 18:23:20;;;;;;;75.07;49.92;;;;;;;;;;4926121;29;20576;-83
2021/10/19 18:25:47;;;;;;;72.00;48.80;;;;;;;;;;4928227;29;20123;-84
2021/10/19 18:28:19;;;;;;;72.93;49.55;;;;;;;;;;4927605;29;20051;-83
2021/10/19 18:30:49;;;;;;;75.43;49.90;;;;;;;;;;4924191;29;20060;-83
2021/10/19 18:33:18;;;;;;;69.80;48.92;;;;;;;;;;4933669;29;20517;-83
2021/10/19 18:35:46;;;;;;;75.30;49.88;;;;;;;;;;4930609;29;20406;-84
2021/10/19 18:38:13;;;;;;;69.63;48.08;;;;;;;;;;4931229;29;20111;-84
2021/10/19 18:40:41;;;;;;;77.57;49.17;;;;;;;;;;4931508;29;20103;-84
2021/10/19 18:43:08;;;;;;;70.43;47.67;;;;;;;;;;4937252;29;20114;-84
2021/10/19 18:45:36;;;;;;;67.85;46.80;;;;;;;;;;4923901;29;20074;-85
2021/10/19 18:48:04;;;;;;;69.22;48.67;;;;;;;;;;4933664;29;20614;-84
2021/10/19 18:50:34;;;;;;;62.25;45.75;;;;;;;;;;4935262;28;20048;-83
2021/10/19 18:53:08;;;;;;;64.68;46.20;;;;;;;;;;4934809;29;20127;-84
2021/10/19 18:55:36;;;;;;;60.80;43.67;;;;;;;;;;4948640;29;20283;-82
2021/10/19 18:58:05;;;;;;;59.50;43.42;;;;;;;;;;4946002;29;20036;-85
2021/10/19 19:00:34;;;;;;;60.60;43.53;;;;;;;;;;4946392;29;21455;-84
2021/10/19 19:03:01;;;;;;;60.30;44.75;;;;;;;;;;4935616;29;20050;-84
2021/10/19 19:05:30;;;;;;;59.92;43.80;;;;;;;;;;4933662;29;20036;-84
2021/10/19 19:08:00;;;;;;;58.25;43.55;;;;;;;;;;4929820;29;20131;-85
2021/10/19 19:10:28;;;;;;;59.15;44.13;;;;;;;;;;4949968;28;20051;-87
2021/10/19 19:12:57;;;;;;;59.35;44.15;;;;;;;;;;4945151;29;20215;-85
2021/10/19 19:15:27;;;;;;;57.35;41.88;;;;;;;;;;4951165;28;20096;-83
2021/10/19 19:17:56;;;;;;;58.45;40.75;;;;;;;;;;4950131;29;20032;-81
2021/10/19 19:20:32;;;;;;;52.47;39.90;;;;;;;;;;4957215;29;20193;-84